CSZ2869 ZJHK-ZGSZ
Flight info
| Callsign | CSZ2869 |
|---|---|
| Flight time | 0h 57m |
| Altitude | 26600 |
| Route | AGTEL9XD AGTEL W71 LH R200 BIGRO W552 LOVTA |
| Aircraft | B738/M-SDE2E3FGHIRWXY/LB1 |
Departure
| Time | 2026-05-08 02:01 |
|---|---|
| Airport | Haikou Meilan International Airport (ZJHK) |
Arrival
| Time | 2026-05-08 02:58 |
|---|---|
| Airport | Shenzhen Bao'an International Airport (ZGSZ) |
| Time | Latitude | Longitude | Altitude | Speed | Heading |
|---|---|---|---|---|---|
| 2026-05-08 01:20 | 19.93893 | 110.46102 | 81 ft | 0 kts | 45° |
| 2026-05-08 01:44 | 19.93886 | 110.46094 | 81 ft | 2 kts | 45° |
| 2026-05-08 01:44 | 19.93875 | 110.46083 | 81 ft | 2 kts | 45° |
| 2026-05-08 01:45 | 19.93864 | 110.46072 | 81 ft | 2 kts | 45° |
| 2026-05-08 01:45 | 19.93854 | 110.46060 | 80 ft | 2 kts | 45° |
| 2026-05-08 01:45 | 19.93843 | 110.46049 | 80 ft | 2 kts | 45° |
| 2026-05-08 01:45 | 19.93832 | 110.46037 | 80 ft | 2 kts | 45° |
| 2026-05-08 01:46 | 19.93822 | 110.46027 | 80 ft | 2 kts | 45° |
| 2026-05-08 01:46 | 19.93812 | 110.46016 | 80 ft | 0 kts | 45° |
| 2026-05-08 01:46 | 19.93804 | 110.46008 | 79 ft | 2 kts | 31° |
| 2026-05-08 01:46 | 19.93790 | 110.46002 | 79 ft | 2 kts | 12° |
| 2026-05-08 01:47 | 19.93775 | 110.46001 | 78 ft | 2 kts | 352° |
| 2026-05-08 01:47 | 19.93761 | 110.46006 | 78 ft | 2 kts | 332° |
| 2026-05-08 01:47 | 19.93749 | 110.46015 | 77 ft | 2 kts | 313° |
| 2026-05-08 01:48 | 19.93736 | 110.46043 | 77 ft | 1 kts | 275° |
| 2026-05-08 01:48 | 19.93736 | 110.46049 | 77 ft | 1 kts | 267° |
| 2026-05-08 01:48 | 19.93736 | 110.46053 | 77 ft | 0 kts | 269° |
| 2026-05-08 01:50 | 19.93736 | 110.46051 | 77 ft | 1 kts | 270° |
| 2026-05-08 01:50 | 19.93736 | 110.46032 | 77 ft | 3 kts | 270° |
| 2026-05-08 01:50 | 19.93736 | 110.45995 | 77 ft | 5 kts | 267° |
| 2026-05-08 01:50 | 19.93733 | 110.45945 | 78 ft | 8 kts | 268° |
| 2026-05-08 01:51 | 19.93733 | 110.45878 | 78 ft | 10 kts | 269° |
| 2026-05-08 01:51 | 19.93732 | 110.45795 | 78 ft | 12 kts | 269° |
| 2026-05-08 01:51 | 19.93732 | 110.45695 | 75 ft | 15 kts | 270° |
| 2026-05-08 01:51 | 19.93732 | 110.45564 | 71 ft | 18 kts | 270° |
| 2026-05-08 01:52 | 19.93731 | 110.45434 | 71 ft | 17 kts | 270° |
| 2026-05-08 01:52 | 19.93731 | 110.45315 | 72 ft | 15 kts | 270° |
| 2026-05-08 01:52 | 19.93730 | 110.45209 | 72 ft | 13 kts | 270° |
| 2026-05-08 01:52 | 19.93730 | 110.45129 | 73 ft | 7 kts | 269° |
| 2026-05-08 01:53 | 19.93751 | 110.45089 | 73 ft | 5 kts | 333° |
| 2026-05-08 01:53 | 19.93797 | 110.45082 | 73 ft | 8 kts | 359° |
| 2026-05-08 01:53 | 19.93863 | 110.45082 | 73 ft | 10 kts | 360° |
| 2026-05-08 01:53 | 19.93939 | 110.45082 | 75 ft | 11 kts | 360° |
| 2026-05-08 01:54 | 19.94024 | 110.45082 | 75 ft | 13 kts | 360° |
| 2026-05-08 01:54 | 19.94134 | 110.45081 | 74 ft | 17 kts | 360° |
| 2026-05-08 01:54 | 19.94267 | 110.45081 | 73 ft | 20 kts | 359° |
| 2026-05-08 01:54 | 19.94411 | 110.45081 | 77 ft | 20 kts | 359° |
| 2026-05-08 01:55 | 19.94560 | 110.45081 | 76 ft | 22 kts | 360° |
| 2026-05-08 01:55 | 19.94721 | 110.45080 | 69 ft | 22 kts | 359° |
| 2026-05-08 01:55 | 19.94863 | 110.45080 | 60 ft | 19 kts | 359° |
| 2026-05-08 01:55 | 19.94956 | 110.45078 | 61 ft | 10 kts | 355° |
| 2026-05-08 01:56 | 19.95010 | 110.45039 | 61 ft | 9 kts | 310° |
| 2026-05-08 01:56 | 19.95061 | 110.44974 | 60 ft | 13 kts | 310° |
| 2026-05-08 01:56 | 19.95129 | 110.44891 | 59 ft | 16 kts | 310° |
| 2026-05-08 01:56 | 19.95175 | 110.44833 | 60 ft | 6 kts | 316° |
| 2026-05-08 01:57 | 19.95210 | 110.44819 | 61 ft | 4 kts | 354° |
| 2026-05-08 01:57 | 19.95233 | 110.44818 | 61 ft | 2 kts | 359° |
| 2026-05-08 01:57 | 19.95242 | 110.44818 | 62 ft | 0 kts | 359° |
| 2026-05-08 01:58 | 19.95251 | 110.44818 | 61 ft | 2 kts | 359° |
| 2026-05-08 01:58 | 19.95283 | 110.44818 | 61 ft | 6 kts | 6° |
| 2026-05-08 01:59 | 19.95337 | 110.44846 | 59 ft | 9 kts | 40° |
| 2026-05-08 01:59 | 19.95370 | 110.44899 | 58 ft | 6 kts | 77° |
| 2026-05-08 01:59 | 19.95372 | 110.44920 | 58 ft | 0 kts | 88° |
| 2026-05-08 02:00 | 19.95372 | 110.44933 | 57 ft | 6 kts | 88° |
| 2026-05-08 02:00 | 19.95373 | 110.45265 | 60 ft | 82 kts | 89° |
| 2026-05-08 02:00 | 19.95374 | 110.46120 | 64 ft | 147 kts | 90° |
| 2026-05-08 02:01 | 19.95379 | 110.47347 | 377 ft | 172 kts | 91° |
| 2026-05-08 02:01 | 19.95497 | 110.48588 | 1067 ft | 178 kts | 65° |
| 2026-05-08 02:01 | 19.96407 | 110.49432 | 1871 ft | 174 kts | 18° |
| 2026-05-08 02:01 | 19.97562 | 110.49411 | 2475 ft | 177 kts | 341° |
| 2026-05-08 02:02 | 19.98743 | 110.48927 | 2989 ft | 181 kts | 341° |
| 2026-05-08 02:02 | 19.99919 | 110.48448 | 3495 ft | 188 kts | 340° |
| 2026-05-08 02:02 | 20.01183 | 110.47921 | 3858 ft | 204 kts | 339° |
| 2026-05-08 02:02 | 20.02559 | 110.47344 | 4303 ft | 219 kts | 340° |
| 2026-05-08 02:03 | 20.04034 | 110.46728 | 4737 ft | 236 kts | 340° |
| 2026-05-08 02:03 | 20.05604 | 110.46069 | 5267 ft | 248 kts | 340° |
| 2026-05-08 02:03 | 20.07277 | 110.45370 | 5785 ft | 262 kts | 340° |
| 2026-05-08 02:03 | 20.09012 | 110.44648 | 6260 ft | 276 kts | 339° |
| 2026-05-08 02:04 | 20.10809 | 110.43898 | 6953 ft | 281 kts | 339° |
| 2026-05-08 02:04 | 20.12649 | 110.43128 | 7701 ft | 284 kts | 339° |
| 2026-05-08 02:04 | 20.14483 | 110.42361 | 8445 ft | 287 kts | 339° |
| 2026-05-08 02:04 | 20.16372 | 110.41572 | 9190 ft | 292 kts | 339° |
| 2026-05-08 02:05 | 20.18250 | 110.40785 | 9947 ft | 295 kts | 338° |
| 2026-05-08 02:05 | 20.20200 | 110.39968 | 10582 ft | 305 kts | 338° |
| 2026-05-08 02:05 | 20.22227 | 110.39119 | 11037 ft | 321 kts | 338° |
| 2026-05-08 02:05 | 20.24357 | 110.38227 | 11446 ft | 337 kts | 338° |
| 2026-05-08 02:06 | 20.26592 | 110.37324 | 12063 ft | 345 kts | 340° |
| 2026-05-08 02:06 | 20.28874 | 110.36507 | 12793 ft | 350 kts | 341° |
| 2026-05-08 02:06 | 20.31229 | 110.35723 | 13527 ft | 354 kts | 342° |
| 2026-05-08 02:06 | 20.33613 | 110.34939 | 14250 ft | 358 kts | 342° |
| 2026-05-08 02:07 | 20.35984 | 110.34149 | 14986 ft | 362 kts | 341° |
| 2026-05-08 02:07 | 20.38391 | 110.33336 | 15708 ft | 366 kts | 341° |
| 2026-05-08 02:07 | 20.40827 | 110.32503 | 16438 ft | 370 kts | 341° |
| 2026-05-08 02:07 | 20.43306 | 110.31652 | 17123 ft | 374 kts | 341° |
| 2026-05-08 02:08 | 20.45786 | 110.30803 | 17791 ft | 378 kts | 341° |
| 2026-05-08 02:08 | 20.48296 | 110.30029 | 18491 ft | 380 kts | 345° |
| 2026-05-08 02:08 | 20.50917 | 110.29532 | 19170 ft | 383 kts | 354° |
| 2026-05-08 02:08 | 20.53619 | 110.29431 | 19818 ft | 387 kts | 360° |
| 2026-05-08 02:09 | 20.56303 | 110.29547 | 20427 ft | 390 kts | 2° |
| 2026-05-08 02:09 | 20.59009 | 110.29751 | 21022 ft | 393 kts | 3° |
| 2026-05-08 02:09 | 20.61766 | 110.29979 | 21591 ft | 397 kts | 3° |
| 2026-05-08 02:09 | 20.64537 | 110.30203 | 22158 ft | 399 kts | 3° |
| 2026-05-08 02:10 | 20.67300 | 110.30414 | 22723 ft | 402 kts | 2° |
| 2026-05-08 02:10 | 20.70142 | 110.30619 | 23255 ft | 405 kts | 2° |
| 2026-05-08 02:10 | 20.72983 | 110.30816 | 23796 ft | 408 kts | 2° |
| 2026-05-08 02:10 | 20.75825 | 110.31010 | 24339 ft | 410 kts | 2° |
| 2026-05-08 02:11 | 20.78680 | 110.31202 | 24828 ft | 414 kts | 2° |
| 2026-05-08 02:11 | 20.81578 | 110.31396 | 25387 ft | 415 kts | 2° |
| 2026-05-08 02:11 | 20.84444 | 110.31586 | 26027 ft | 414 kts | 2° |
| 2026-05-08 02:11 | 20.87317 | 110.31775 | 26460 ft | 415 kts | 2° |
| 2026-05-08 02:12 | 20.90246 | 110.31966 | 26536 ft | 419 kts | 2° |
| 2026-05-08 02:12 | 20.93167 | 110.32158 | 26544 ft | 417 kts | 2° |
| 2026-05-08 02:12 | 20.96031 | 110.32346 | 26547 ft | 410 kts | 2° |
| 2026-05-08 02:12 | 20.98882 | 110.32538 | 26548 ft | 406 kts | 2° |
| 2026-05-08 02:13 | 21.01700 | 110.32716 | 26548 ft | 407 kts | 2° |
| 2026-05-08 02:13 | 21.04553 | 110.33005 | 26550 ft | 410 kts | 7° |
| 2026-05-08 02:13 | 21.07320 | 110.33710 | 26554 ft | 412 kts | 19° |
| 2026-05-08 02:13 | 21.09898 | 110.35090 | 26561 ft | 415 kts | 32° |
| 2026-05-08 02:14 | 21.12153 | 110.36994 | 26562 ft | 416 kts | 41° |
| 2026-05-08 02:14 | 21.14175 | 110.39275 | 26565 ft | 418 kts | 48° |
| 2026-05-08 02:14 | 21.15847 | 110.41779 | 26564 ft | 420 kts | 59° |
| 2026-05-08 02:14 | 21.17069 | 110.44649 | 26572 ft | 422 kts | 68° |
| 2026-05-08 02:15 | 21.18028 | 110.47633 | 26570 ft | 422 kts | 71° |
| 2026-05-08 02:15 | 21.18883 | 110.50620 | 26491 ft | 424 kts | 72° |
| 2026-05-08 02:15 | 21.19719 | 110.53637 | 26327 ft | 424 kts | 72° |
| 2026-05-08 02:15 | 21.20565 | 110.56686 | 26086 ft | 424 kts | 72° |
| 2026-05-08 02:16 | 21.21402 | 110.59666 | 25951 ft | 420 kts | 72° |
| 2026-05-08 02:16 | 21.22259 | 110.62677 | 25872 ft | 422 kts | 71° |
| 2026-05-08 02:16 | 21.23126 | 110.65683 | 25940 ft | 422 kts | 71° |
| 2026-05-08 02:16 | 21.24010 | 110.68702 | 26151 ft | 425 kts | 71° |
| 2026-05-08 02:17 | 21.24903 | 110.71691 | 26340 ft | 426 kts | 71° |
| 2026-05-08 02:17 | 21.25792 | 110.74707 | 26516 ft | 423 kts | 71° |
| 2026-05-08 02:17 | 21.26649 | 110.77752 | 26558 ft | 424 kts | 72° |
| 2026-05-08 02:17 | 21.27503 | 110.80761 | 26555 ft | 420 kts | 71° |
| 2026-05-08 02:18 | 21.28350 | 110.83683 | 26558 ft | 410 kts | 71° |
| 2026-05-08 02:18 | 21.29202 | 110.86591 | 26558 ft | 404 kts | 71° |
| 2026-05-08 02:18 | 21.30046 | 110.89465 | 26559 ft | 405 kts | 71° |
| 2026-05-08 02:18 | 21.30899 | 110.92364 | 26560 ft | 409 kts | 71° |
| 2026-05-08 02:19 | 21.31746 | 110.95249 | 26557 ft | 410 kts | 71° |
| 2026-05-08 02:19 | 21.32605 | 110.98178 | 26559 ft | 408 kts | 71° |
| 2026-05-08 02:19 | 21.33451 | 111.01074 | 26558 ft | 408 kts | 71° |
| 2026-05-08 02:19 | 21.34296 | 111.03970 | 26559 ft | 409 kts | 71° |
| 2026-05-08 02:20 | 21.35137 | 111.06855 | 26556 ft | 408 kts | 71° |
| 2026-05-08 02:20 | 21.35990 | 111.09783 | 26558 ft | 408 kts | 71° |
| 2026-05-08 02:20 | 21.36842 | 111.12708 | 26559 ft | 411 kts | 71° |
| 2026-05-08 02:20 | 21.37690 | 111.15623 | 26559 ft | 410 kts | 71° |
| 2026-05-08 02:21 | 21.38547 | 111.18569 | 26556 ft | 411 kts | 71° |
| 2026-05-08 02:21 | 21.39387 | 111.21467 | 26556 ft | 410 kts | 71° |
| 2026-05-08 02:21 | 21.40231 | 111.24379 | 26557 ft | 410 kts | 71° |
| 2026-05-08 02:21 | 21.41080 | 111.27303 | 26556 ft | 409 kts | 71° |
| 2026-05-08 02:22 | 21.41920 | 111.30199 | 26555 ft | 409 kts | 71° |
| 2026-05-08 02:22 | 21.42767 | 111.33122 | 26556 ft | 410 kts | 71° |
| 2026-05-08 02:22 | 21.43615 | 111.36048 | 26555 ft | 410 kts | 71° |
| 2026-05-08 02:22 | 21.44461 | 111.38969 | 26555 ft | 410 kts | 71° |
| 2026-05-08 02:23 | 21.45301 | 111.41886 | 26553 ft | 409 kts | 71° |
| 2026-05-08 02:23 | 21.46131 | 111.44784 | 26554 ft | 410 kts | 71° |
| 2026-05-08 02:23 | 21.46964 | 111.47691 | 26552 ft | 410 kts | 71° |
| 2026-05-08 02:23 | 21.47812 | 111.50635 | 26552 ft | 409 kts | 71° |
| 2026-05-08 02:24 | 21.48654 | 111.53552 | 26552 ft | 409 kts | 71° |
| 2026-05-08 02:24 | 21.49496 | 111.56467 | 26552 ft | 409 kts | 71° |
| 2026-05-08 02:24 | 21.50331 | 111.59369 | 26550 ft | 411 kts | 71° |
| 2026-05-08 02:24 | 21.51168 | 111.62284 | 26550 ft | 410 kts | 71° |
| 2026-05-08 02:25 | 21.52011 | 111.65215 | 26550 ft | 410 kts | 71° |
| 2026-05-08 02:25 | 21.52856 | 111.68157 | 26551 ft | 411 kts | 71° |
| 2026-05-08 02:25 | 21.53696 | 111.71079 | 26551 ft | 410 kts | 71° |
| 2026-05-08 02:25 | 21.54535 | 111.74000 | 26550 ft | 409 kts | 71° |
| 2026-05-08 02:26 | 21.55376 | 111.76933 | 26550 ft | 410 kts | 71° |
| 2026-05-08 02:26 | 21.56220 | 111.79874 | 26549 ft | 410 kts | 71° |
| 2026-05-08 02:26 | 21.57049 | 111.82769 | 26548 ft | 409 kts | 71° |
| 2026-05-08 02:26 | 21.57841 | 111.85721 | 26548 ft | 410 kts | 73° |
| 2026-05-08 02:27 | 21.58568 | 111.88679 | 26547 ft | 411 kts | 74° |
| 2026-05-08 02:27 | 21.59265 | 111.91644 | 26547 ft | 409 kts | 74° |
| 2026-05-08 02:27 | 21.59955 | 111.94604 | 26547 ft | 411 kts | 74° |
| 2026-05-08 02:27 | 21.60648 | 111.97557 | 26545 ft | 411 kts | 74° |
| 2026-05-08 02:28 | 21.61357 | 112.00555 | 26544 ft | 412 kts | 74° |
| 2026-05-08 02:28 | 21.62068 | 112.03536 | 26543 ft | 411 kts | 74° |
| 2026-05-08 02:28 | 21.62769 | 112.06476 | 26541 ft | 411 kts | 74° |
| 2026-05-08 02:28 | 21.63482 | 112.09467 | 26541 ft | 411 kts | 74° |
| 2026-05-08 02:29 | 21.64189 | 112.12427 | 26537 ft | 411 kts | 74° |
| 2026-05-08 02:29 | 21.64901 | 112.15404 | 26538 ft | 412 kts | 73° |
| 2026-05-08 02:29 | 21.65610 | 112.18362 | 26540 ft | 412 kts | 73° |
| 2026-05-08 02:29 | 21.66327 | 112.21354 | 26541 ft | 411 kts | 73° |
| 2026-05-08 02:30 | 21.67040 | 112.24335 | 26541 ft | 411 kts | 73° |
| 2026-05-08 02:30 | 21.67742 | 112.27273 | 26542 ft | 411 kts | 73° |
| 2026-05-08 02:30 | 21.68450 | 112.30233 | 26542 ft | 411 kts | 73° |
| 2026-05-08 02:30 | 21.69163 | 112.33215 | 26541 ft | 410 kts | 74° |
| 2026-05-08 02:31 | 21.69868 | 112.36171 | 26542 ft | 410 kts | 74° |
| 2026-05-08 02:31 | 21.70584 | 112.39176 | 26543 ft | 412 kts | 74° |
| 2026-05-08 02:31 | 21.71284 | 112.42121 | 26544 ft | 411 kts | 73° |
| 2026-05-08 02:31 | 21.71993 | 112.45110 | 26543 ft | 410 kts | 73° |
| 2026-05-08 02:32 | 21.72692 | 112.48055 | 26544 ft | 412 kts | 73° |
| 2026-05-08 02:32 | 21.73404 | 112.51054 | 26547 ft | 413 kts | 73° |
| 2026-05-08 02:32 | 21.74117 | 112.54050 | 26547 ft | 411 kts | 73° |
| 2026-05-08 02:32 | 21.74820 | 112.57014 | 26547 ft | 410 kts | 73° |
| 2026-05-08 02:33 | 21.75527 | 112.59986 | 26549 ft | 412 kts | 73° |
| 2026-05-08 02:33 | 21.76240 | 112.62952 | 26553 ft | 412 kts | 73° |
| 2026-05-08 02:33 | 21.76957 | 112.65927 | 26554 ft | 412 kts | 73° |
| 2026-05-08 02:33 | 21.77679 | 112.68927 | 26557 ft | 411 kts | 73° |
| 2026-05-08 02:34 | 21.78392 | 112.71887 | 26559 ft | 412 kts | 73° |
| 2026-05-08 02:34 | 21.79107 | 112.74858 | 26561 ft | 411 kts | 73° |
| 2026-05-08 02:34 | 21.79827 | 112.77853 | 26564 ft | 412 kts | 73° |
| 2026-05-08 02:34 | 21.80538 | 112.80818 | 26567 ft | 412 kts | 73° |
| 2026-05-08 02:35 | 21.81252 | 112.83795 | 26570 ft | 412 kts | 73° |
| 2026-05-08 02:35 | 21.81927 | 112.86798 | 26572 ft | 412 kts | 75° |
| 2026-05-08 02:35 | 21.82616 | 112.89825 | 26572 ft | 412 kts | 74° |
| 2026-05-08 02:35 | 21.83330 | 112.92809 | 26575 ft | 412 kts | 73° |
| 2026-05-08 02:36 | 21.84051 | 112.95763 | 26576 ft | 412 kts | 73° |
| 2026-05-08 02:36 | 21.84777 | 112.98723 | 26574 ft | 411 kts | 73° |
| 2026-05-08 02:36 | 21.85502 | 113.01701 | 26574 ft | 412 kts | 73° |
| 2026-05-08 02:36 | 21.86225 | 113.04710 | 26573 ft | 411 kts | 73° |
| 2026-05-08 02:37 | 21.86938 | 113.07710 | 26576 ft | 412 kts | 73° |
| 2026-05-08 02:37 | 21.87637 | 113.10673 | 26576 ft | 412 kts | 74° |
| 2026-05-08 02:37 | 21.88347 | 113.13687 | 26576 ft | 413 kts | 74° |
| 2026-05-08 02:37 | 21.89051 | 113.16679 | 26573 ft | 412 kts | 73° |
| 2026-05-08 02:38 | 21.89747 | 113.19650 | 26250 ft | 407 kts | 74° |
| 2026-05-08 02:38 | 21.90455 | 113.22589 | 25495 ft | 406 kts | 71° |
| 2026-05-08 02:38 | 21.91358 | 113.25408 | 24848 ft | 400 kts | 64° |
| 2026-05-08 02:38 | 21.92726 | 113.27980 | 24242 ft | 392 kts | 50° |
| 2026-05-08 02:39 | 21.94554 | 113.30110 | 23607 ft | 384 kts | 38° |
| 2026-05-08 02:39 | 21.96642 | 113.31862 | 22987 ft | 379 kts | 32° |
| 2026-05-08 02:39 | 21.98833 | 113.33354 | 22414 ft | 373 kts | 27° |
| 2026-05-08 02:39 | 22.01111 | 113.34708 | 21786 ft | 370 kts | 25° |
| 2026-05-08 02:40 | 22.03389 | 113.35985 | 21189 ft | 367 kts | 25° |
| 2026-05-08 02:40 | 22.05642 | 113.37231 | 20538 ft | 365 kts | 25° |
| 2026-05-08 02:40 | 22.07875 | 113.38475 | 19981 ft | 361 kts | 25° |
| 2026-05-08 02:40 | 22.10113 | 113.39735 | 19584 ft | 357 kts | 25° |
| 2026-05-08 02:41 | 22.12282 | 113.40968 | 19044 ft | 354 kts | 26° |
| 2026-05-08 02:41 | 22.14485 | 113.42229 | 18347 ft | 354 kts | 25° |
| 2026-05-08 02:41 | 22.16645 | 113.43469 | 17771 ft | 351 kts | 26° |
| 2026-05-08 02:41 | 22.18784 | 113.44701 | 17260 ft | 350 kts | 25° |
| 2026-05-08 02:42 | 22.21007 | 113.45769 | 16717 ft | 349 kts | 16° |
| 2026-05-08 02:42 | 22.23385 | 113.46166 | 16228 ft | 344 kts | 354° |
| 2026-05-08 02:42 | 22.25730 | 113.45641 | 15774 ft | 339 kts | 340° |
| 2026-05-08 02:42 | 22.27896 | 113.44851 | 15301 ft | 323 kts | 339° |
| 2026-05-08 02:43 | 22.29963 | 113.44060 | 14859 ft | 310 kts | 339° |
| 2026-05-08 02:43 | 22.32003 | 113.43296 | 14426 ft | 311 kts | 339° |
| 2026-05-08 02:43 | 22.34053 | 113.42555 | 13989 ft | 311 kts | 340° |
| 2026-05-08 02:43 | 22.36134 | 113.41824 | 13549 ft | 311 kts | 340° |
| 2026-05-08 02:44 | 22.38193 | 113.41109 | 13122 ft | 312 kts | 340° |
| 2026-05-08 02:44 | 22.40264 | 113.40411 | 12673 ft | 313 kts | 343° |
| 2026-05-08 02:44 | 22.42433 | 113.40037 | 12216 ft | 315 kts | 359° |
| 2026-05-08 02:44 | 22.44573 | 113.40522 | 11778 ft | 318 kts | 22° |
| 2026-05-08 02:45 | 22.46400 | 113.41836 | 11343 ft | 319 kts | 42° |
| 2026-05-08 02:45 | 22.47855 | 113.43652 | 10923 ft | 318 kts | 56° |
| 2026-05-08 02:45 | 22.48894 | 113.45664 | 10872 ft | 304 kts | 64° |
| 2026-05-08 02:45 | 22.49754 | 113.47743 | 10830 ft | 289 kts | 66° |
| 2026-05-08 02:46 | 22.50508 | 113.49676 | 10858 ft | 271 kts | 66° |
| 2026-05-08 02:46 | 22.51230 | 113.51502 | 10754 ft | 258 kts | 66° |
| 2026-05-08 02:46 | 22.51944 | 113.53252 | 10643 ft | 247 kts | 65° |
| 2026-05-08 02:46 | 22.52759 | 113.54868 | 10375 ft | 244 kts | 52° |
| 2026-05-08 02:47 | 22.54039 | 113.56018 | 10000 ft | 242 kts | 20° |
| 2026-05-08 02:47 | 22.55667 | 113.56332 | 9684 ft | 238 kts | 359° |
| 2026-05-08 02:47 | 22.57335 | 113.56351 | 9362 ft | 237 kts | 358° |
| 2026-05-08 02:47 | 22.58983 | 113.56395 | 9066 ft | 236 kts | 360° |
| 2026-05-08 02:48 | 22.60622 | 113.56467 | 8764 ft | 235 kts | 0° |
| 2026-05-08 02:48 | 22.62259 | 113.56541 | 8459 ft | 234 kts | 0° |
| 2026-05-08 02:48 | 22.63873 | 113.56609 | 8155 ft | 233 kts | 1° |
| 2026-05-08 02:48 | 22.65503 | 113.56676 | 7858 ft | 232 kts | 1° |
| 2026-05-08 02:49 | 22.67114 | 113.56741 | 7562 ft | 230 kts | 0° |
| 2026-05-08 02:49 | 22.68716 | 113.56806 | 7262 ft | 229 kts | 0° |
| 2026-05-08 02:49 | 22.70313 | 113.56873 | 6989 ft | 227 kts | 1° |
| 2026-05-08 02:49 | 22.71910 | 113.56940 | 6699 ft | 226 kts | 1° |
| 2026-05-08 02:50 | 22.73463 | 113.57003 | 6420 ft | 225 kts | 0° |
| 2026-05-08 02:50 | 22.75042 | 113.57056 | 6130 ft | 224 kts | 0° |
| 2026-05-08 02:50 | 22.76599 | 113.57101 | 5848 ft | 222 kts | 0° |
| 2026-05-08 02:50 | 22.78135 | 113.57147 | 5570 ft | 221 kts | 0° |
| 2026-05-08 02:51 | 22.79687 | 113.57194 | 5308 ft | 218 kts | 1° |
| 2026-05-08 02:51 | 22.81179 | 113.57245 | 5013 ft | 214 kts | 2° |
| 2026-05-08 02:51 | 22.82609 | 113.57542 | 4852 ft | 204 kts | 22° |
| 2026-05-08 02:51 | 22.83677 | 113.58479 | 4664 ft | 198 kts | 53° |
| 2026-05-08 02:52 | 22.84333 | 113.59783 | 4470 ft | 197 kts | 63° |
| 2026-05-08 02:52 | 22.84953 | 113.61112 | 4227 ft | 195 kts | 62° |
| 2026-05-08 02:52 | 22.85583 | 113.62405 | 3988 ft | 194 kts | 61° |
| 2026-05-08 02:52 | 22.86205 | 113.63715 | 3748 ft | 194 kts | 65° |
| 2026-05-08 02:53 | 22.86519 | 113.65121 | 3506 ft | 194 kts | 92° |
| 2026-05-08 02:53 | 22.86112 | 113.66505 | 3270 ft | 195 kts | 121° |
| 2026-05-08 02:53 | 22.85245 | 113.67626 | 3031 ft | 195 kts | 139° |
| 2026-05-08 02:53 | 22.84054 | 113.68363 | 2796 ft | 195 kts | 156° |
| 2026-05-08 02:54 | 22.82809 | 113.68935 | 2569 ft | 193 kts | 153° |
| 2026-05-08 02:54 | 22.81627 | 113.69614 | 2358 ft | 193 kts | 150° |
| 2026-05-08 02:54 | 22.80435 | 113.70301 | 2252 ft | 191 kts | 152° |
| 2026-05-08 02:54 | 22.79249 | 113.70953 | 2244 ft | 189 kts | 152° |
| 2026-05-08 02:55 | 22.78058 | 113.71606 | 2247 ft | 192 kts | 152° |
| 2026-05-08 02:55 | 22.75711 | 113.72888 | 2175 ft | 182 kts | 153° |
| 2026-05-08 02:55 | 22.74595 | 113.73501 | 1950 ft | 173 kts | 153° |
| 2026-05-08 02:56 | 22.73523 | 113.74088 | 1737 ft | 173 kts | 152° |
| 2026-05-08 02:56 | 22.72460 | 113.74668 | 1553 ft | 163 kts | 152° |
| 2026-05-08 02:56 | 22.71449 | 113.75221 | 1293 ft | 161 kts | 152° |
| 2026-05-08 02:56 | 22.70471 | 113.75754 | 1093 ft | 155 kts | 153° |
| 2026-05-08 02:57 | 22.69494 | 113.76286 | 898 ft | 156 kts | 153° |
| 2026-05-08 02:57 | 22.68539 | 113.76809 | 702 ft | 154 kts | 153° |
| 2026-05-08 02:57 | 22.67574 | 113.77324 | 508 ft | 154 kts | 154° |
| 2026-05-08 02:57 | 22.66610 | 113.77850 | 308 ft | 152 kts | 153° |
| 2026-05-08 02:58 | 22.65676 | 113.78360 | 121 ft | 152 kts | 154° |
| 2026-05-08 02:58 | 22.64742 | 113.78867 | 27 ft | 140 kts | 154° |
| 2026-05-08 02:58 | 22.64043 | 113.79253 | 21 ft | 77 kts | 153° |
| 2026-05-08 02:58 | 22.63727 | 113.79427 | 21 ft | 35 kts | 152° |
| 2026-05-08 02:59 | 22.63557 | 113.79570 | 21 ft | 29 kts | 129° |
| 2026-05-08 02:59 | 22.63476 | 113.79698 | 21 ft | 8 kts | 121° |
| 2026-05-08 02:59 | 22.63477 | 113.79740 | 21 ft | 6 kts | 65° |
| 2026-05-08 02:59 | 22.63502 | 113.79795 | 21 ft | 9 kts | 63° |
| 2026-05-08 03:00 | 22.63539 | 113.79872 | 21 ft | 12 kts | 63° |
| 2026-05-08 03:00 | 22.63582 | 113.79964 | 21 ft | 14 kts | 63° |
| 2026-05-08 03:00 | 22.63628 | 113.80062 | 21 ft | 14 kts | 63° |
| 2026-05-08 03:00 | 22.63656 | 113.80138 | 21 ft | 6 kts | 95° |
| 2026-05-08 03:01 | 22.63630 | 113.80174 | 21 ft | 6 kts | 152° |
| 2026-05-08 03:01 | 22.63588 | 113.80210 | 21 ft | 7 kts | 120° |
| 2026-05-08 03:01 | 22.63570 | 113.80254 | 21 ft | 4 kts | 114° |
| 2026-05-08 03:01 | 22.63560 | 113.80277 | 21 ft | 2 kts | 115° |
| 2026-05-08 03:02 | 22.63553 | 113.80295 | 21 ft | 2 kts | 115° |
| 2026-05-08 03:02 | 22.63548 | 113.80304 | 21 ft | 0 kts | 115° |
| 2026-05-08 03:02 | 22.63547 | 113.80307 | 21 ft | 0 kts | 115° |